Buoy 43519

sailwx.info

Track history (hours):
 
Tides and Currents Weather Stations Pressure Air Temp Water Temp Dewpoint Dewpoint Depression Visibility Wind Speed Wind Dir Waves Ship Positions

Drifting buoy 43519

Last reported at 2015-Jul-07 13:00 UTC. Time now 2015-Jul-08 00:04 UTC.
Position N 27°03' W 118°40'.

Barometer 1017.2 mb
Water temperature 20.8 ° C

Date/timePositionNaut miles runAvg speedWind from/ knotsBaromVisibWave heightAir tempDewpointWater temp
2015-Jul-07 13:00N 27°03' W 118°40'0 0.0 1017.2 20.8
2015-Jul-07 12:00N 27°03' W 118°40'0 0.3 1017.0 20.8
2015-Jul-07 11:00N 27°04' W 118°40'0 0.0 1017.0 20.8
2015-Jul-07 09:00N 27°04' W 118°40'0 0.0 1017.5 20.8
2015-Jul-07 08:00N 27°04' W 118°40'3 0.4 1017.7 20.8
2015-Jul-07 02:00N 27°06' W 118°41'3 0.5 1017.0 20.8
2015-Jul-06 20:00N 27°09' W 118°43'0 0.0 1018.7 20.8
2015-Jul-06 18:00N 27°09' W 118°43'2 0.8 1019.0 20.8
2015-Jul-06 15:00N 27°10' W 118°45'6 0.4 1019.0 20.8
2015-Jul-06 02:00N 27°13' W 118°50'2 0.3 1016.5 21.0
2015-Jul-05 18:00N 27°14' W 118°53'1 0.5 1017.4 20.7
2015-Jul-05 17:00N 27°14' W 118°54'7 0.7 1017.2 20.7
2015-Jul-05 06:00N 27°18' W 119°00'4 0.6 1015.9 20.6
2015-Jul-04 23:00N 27°20' W 119°04'0 0.0 1014.5 21.0
2015-Jul-04 22:00N 27°20' W 119°04'3 0.7 1014.5 21.0
2015-Jul-04 18:00N 27°22' W 119°06'1 0.1 1015.5 20.5
2015-Jul-04 14:00N 27°22' W 119°07'7 0.5 1014.5 20.4
2015-Jul-03 23:00N 27°26' W 119°14'1 0.6 1014.2 20.7
2015-Jul-03 21:00N 27°27' W 119°14'1 1.3 1015.0 20.7
2015-Jul-03 20:00N 27°28' W 119°14'3 1.5 1015.7 20.6
2015-Jul-03 18:00N 27°30' W 119°17'0 0.0 1016.2 20.4
2015-Jul-03 15:00N 27°30' W 119°17'0 0.0 1016.0 20.3
2015-Jul-03 14:00N 27°30' W 119°17'3 0.9 1015.9 20.3
2015-Jul-03 11:00N 27°31' W 119°19'3 2.5 1015.9 20.4
2015-Jul-03 10:00N 27°33' W 119°22'0 0.1 1015.9 20.4
2015-Jul-03 05:00N 27°33' W 119°21'0 0.2 1015.7 20.5
2015-Jul-03 02:00N 27°33' W 119°22'1 0.3 1014.9 20.7
2015-Jul-03 00:00N 27°33' W 119°23'1 1.4 1015.7 20.7
2015-Jul-02 23:00N 27°34' W 119°23'0 0.0 1016.0 20.8
2015-Jul-02 22:00N 27°34' W 119°23'2 0.4 1016.0 20.7
2015-Jul-02 17:00N 27°36' W 119°23'3 1.3 1016.5 20.2
2015-Jul-02 15:00N 27°38' W 119°26'2 0.8 1017.0 20.2
2015-Jul-02 12:00N 27°39' W 119°28'0 0.0 1016.0 20.2
2015-Jul-02 11:00N 27°39' W 119°28'3 0.3 1015.5 20.2
2015-Jul-02 01:00N 27°41' W 119°31'5 0.5 1013.5 20.8
2015-Jul-01 15:00N 27°45' W 119°34'3 0.9 1014.0 19.9
2015-Jul-01 12:00N 27°46' W 119°37'0 0.0 1013.0 19.9
2015-Jul-01 10:00N 27°46' W 119°37'1 0.1 1012.9 19.9
2015-Jul-01 02:00N 27°47' W 119°38'0 0.1 1011.5 20.1
2015-Jun-30 23:00N 27°47' W 119°38'4 0.4 1012.7 20.1
2015-Jun-30 13:00N 27°51' W 119°40'1 0.3 1013.7 19.8
2015-Jun-30 09:00N 27°52' W 119°41'5 0.2 1014.2 19.8
2015-Jun-29 06:00N 27°56' W 119°41'1 0.2 1015.5 19.8
2015-Jun-29 01:00N 27°57' W 119°40'3 0.3 1014.5 19.8
2015-Jun-28 14:00N 27°59' W 119°38'1 0.2 1015.7 19.7
2015-Jun-28 11:00N 27°59' W 119°37'0 0.0 1015.0 19.8
2015-Jun-28 10:00N 27°59' W 119°37'0 0.0 1015.2 19.8
2015-Jun-28 08:00N 27°59' W 119°37'3 0.5 1016.0 19.8
2015-Jun-28 02:00N 28°01' W 119°35'2 0.8 1014.7 19.8
2015-Jun-28 00:00N 28°02' W 119°33'3 0.7 1015.2 19.9
2015-Jun-27 20:00N 28°03' W 119°30'3 0.9 1016.9 19.8
2015-Jun-27 17:00N 28°05' W 119°28'   1017.2 19.8
Track history (hours):
 
Tides and Currents Weather Stations Pressure Air Temp Water Temp Dewpoint Dewpoint Depression Visibility Wind Speed Wind Dir Waves Ship Positions

Drifting buoy 43519

Last reported at 2015-Jul-07 13:00 UTC. Time now 2015-Jul-08 00:04 UTC.
Position N 27°03' W 118°40'.

Barometer 1017.2 mb
Water temperature 20.8 ° C

Date/timePositionNaut miles runAvg speedWind from/ knotsBaromVisibWave heightAir tempDewpointWater temp
2015-Jul-07 13:00N 27°03' W 118°40'0 0.0 1017.2 20.8
2015-Jul-07 12:00N 27°03' W 118°40'0 0.3 1017.0 20.8
2015-Jul-07 11:00N 27°04' W 118°40'0 0.0 1017.0 20.8
2015-Jul-07 09:00N 27°04' W 118°40'0 0.0 1017.5 20.8
2015-Jul-07 08:00N 27°04' W 118°40'3 0.4 1017.7 20.8
2015-Jul-07 02:00N 27°06' W 118°41'3 0.5 1017.0 20.8
2015-Jul-06 20:00N 27°09' W 118°43'0 0.0 1018.7 20.8
2015-Jul-06 18:00N 27°09' W 118°43'2 0.8 1019.0 20.8
2015-Jul-06 15:00N 27°10' W 118°45'6 0.4 1019.0 20.8
2015-Jul-06 02:00N 27°13' W 118°50'2 0.3 1016.5 21.0
2015-Jul-05 18:00N 27°14' W 118°53'1 0.5 1017.4 20.7
2015-Jul-05 17:00N 27°14' W 118°54'7 0.7 1017.2 20.7
2015-Jul-05 06:00N 27°18' W 119°00'4 0.6 1015.9 20.6
2015-Jul-04 23:00N 27°20' W 119°04'0 0.0 1014.5 21.0
2015-Jul-04 22:00N 27°20' W 119°04'3 0.7 1014.5 21.0
2015-Jul-04 18:00N 27°22' W 119°06'1 0.1 1015.5 20.5
2015-Jul-04 14:00N 27°22' W 119°07'7 0.5 1014.5 20.4
2015-Jul-03 23:00N 27°26' W 119°14'1 0.6 1014.2 20.7
2015-Jul-03 21:00N 27°27' W 119°14'1 1.3 1015.0 20.7
2015-Jul-03 20:00N 27°28' W 119°14'3 1.5 1015.7 20.6
2015-Jul-03 18:00N 27°30' W 119°17'0 0.0 1016.2 20.4
2015-Jul-03 15:00N 27°30' W 119°17'0 0.0 1016.0 20.3
2015-Jul-03 14:00N 27°30' W 119°17'3 0.9 1015.9 20.3
2015-Jul-03 11:00N 27°31' W 119°19'3 2.5 1015.9 20.4
2015-Jul-03 10:00N 27°33' W 119°22'0 0.1 1015.9 20.4
2015-Jul-03 05:00N 27°33' W 119°21'0 0.2 1015.7 20.5
2015-Jul-03 02:00N 27°33' W 119°22'1 0.3 1014.9 20.7
2015-Jul-03 00:00N 27°33' W 119°23'1 1.4 1015.7 20.7
2015-Jul-02 23:00N 27°34' W 119°23'0 0.0 1016.0 20.8
2015-Jul-02 22:00N 27°34' W 119°23'2 0.4 1016.0 20.7
2015-Jul-02 17:00N 27°36' W 119°23'3 1.3 1016.5 20.2
2015-Jul-02 15:00N 27°38' W 119°26'2 0.8 1017.0 20.2
2015-Jul-02 12:00N 27°39' W 119°28'0 0.0 1016.0 20.2
2015-Jul-02 11:00N 27°39' W 119°28'3 0.3 1015.5 20.2
2015-Jul-02 01:00N 27°41' W 119°31'5 0.5 1013.5 20.8
2015-Jul-01 15:00N 27°45' W 119°34'3 0.9 1014.0 19.9
2015-Jul-01 12:00N 27°46' W 119°37'0 0.0 1013.0 19.9
2015-Jul-01 10:00N 27°46' W 119°37'1 0.1 1012.9 19.9
2015-Jul-01 02:00N 27°47' W 119°38'0 0.1 1011.5 20.1
2015-Jun-30 23:00N 27°47' W 119°38'4 0.4 1012.7 20.1
2015-Jun-30 13:00N 27°51' W 119°40'1 0.3 1013.7 19.8
2015-Jun-30 09:00N 27°52' W 119°41'5 0.2 1014.2 19.8
2015-Jun-29 06:00N 27°56' W 119°41'1 0.2 1015.5 19.8
2015-Jun-29 01:00N 27°57' W 119°40'3 0.3 1014.5 19.8
2015-Jun-28 14:00N 27°59' W 119°38'1 0.2 1015.7 19.7
2015-Jun-28 11:00N 27°59' W 119°37'0 0.0 1015.0 19.8
2015-Jun-28 10:00N 27°59' W 119°37'0 0.0 1015.2 19.8
2015-Jun-28 08:00N 27°59' W 119°37'3 0.5 1016.0 19.8
2015-Jun-28 02:00N 28°01' W 119°35'2 0.8 1014.7 19.8
2015-Jun-28 00:00N 28°02' W 119°33'3 0.7 1015.2 19.9
2015-Jun-27 20:00N 28°03' W 119°30'3 0.9 1016.9 19.8
2015-Jun-27 17:00N 28°05' W 119°28'   1017.2 19.8

Dump ship's entire track history